Time;durP1;ratioP1;P1;durP2;ratioP2;P2;SDS_P1;SDS_P2;PMS_P1;PMS_P2;Temp;Humidity;BMP_temperature;BMP_pressure;BME280_temperature;BME280_humidity;BME280_pressure;Samples;Min_cycle;Max_cycle;Signal;HPM_P1;HPM_P2
2021/12/08 00:00:56;;;;;;;10.13;5.85;;;;;;;4.90;100.00;98528.25;4988059;28;20057;-65
2021/12/08 00:03:24;;;;;;;8.85;5.43;;;;;;;4.87;100.00;98528.38;4987163;28;20026;-65
2021/12/08 00:05:50;;;;;;;13.07;6.47;;;;;;;4.89;100.00;98531.78;4993438;28;20026;-65
2021/12/08 00:08:18;;;;;;;10.35;6.68;;;;;;;4.87;100.00;98533.63;4986888;28;20022;-65
2021/12/08 00:13:25;;;;;;;9.77;6.53;;;;;;;4.87;100.00;98533.63;4983004;28;20047;-65
2021/12/08 00:15:53;;;;;;;13.75;6.47;;;;;;;4.90;100.00;98528.25;4991159;28;20375;-65
2021/12/08 00:18:26;;;;;;;10.05;5.97;;;;;;;4.94;100.00;98537.75;4971426;28;20715;-65
2021/12/08 00:20:54;;;;;;;13.47;6.20;;;;;;;4.87;100.00;98533.63;4984219;28;20060;-64
2021/12/08 00:23:20;;;;;;;8.82;6.03;;;;;;;4.87;100.00;98538.91;4992614;28;20049;-64
2021/12/08 00:26:05;;;;;;;10.25;6.32;;;;;;;5.01;100.00;98536.66;4981435;28;20030;-64
2021/12/08 00:28:31;;;;;;;8.70;5.47;;;;;;;5.04;100.00;98546.25;4971225;28;20101;-64
2021/12/08 00:30:59;;;;;;;9.25;5.88;;;;;;;5.03;100.00;98542.75;4975505;28;20359;-64
2021/12/08 00:33:27;;;;;;;11.95;6.07;;;;;;;5.03;100.00;98540.09;4994377;28;20059;-64
2021/12/08 00:35:53;;;;;;;10.90;5.50;;;;;;;4.99;100.00;98533.19;4987396;28;20058;-64
2021/12/08 00:38:20;;;;;;;13.05;7.20;;;;;;;5.09;100.00;98550.41;4986378;28;20022;-63
2021/12/08 00:40:47;;;;;;;9.32;6.07;;;;;;;5.17;100.00;98548.38;4990867;28;20065;-63
2021/12/08 00:43:13;;;;;;;14.30;5.97;;;;;;;5.18;100.00;98555.41;4989613;28;20106;-63
2021/12/08 00:45:39;;;;;;;10.15;5.53;;;;;;;5.17;100.00;98555.44;4983870;28;20106;-63
2021/12/08 00:48:05;;;;;;;8.48;5.75;;;;;;;5.19;100.00;98551.81;4990751;28;20054;-63
2021/12/08 00:50:33;;;;;;;10.65;5.63;;;;;;;5.17;100.00;98548.38;4990352;28;20076;-63
2021/12/08 00:52:58;;;;;;;8.77;5.25;;;;;;;5.18;100.00;98555.41;4993476;28;20571;-64
2021/12/08 00:55:26;;;;;;;12.40;6.43;;;;;;;5.18;100.00;98555.41;4980761;28;20022;-64
2021/12/08 00:57:52;;;;;;;12.15;6.93;;;;;;;5.26;100.00;98558.63;4994183;28;20738;-64
2021/12/08 01:00:24;;;;;;;9.95;6.97;;;;;;;5.22;100.00;98564.06;4986600;28;20019;-64
2021/12/08 01:02:50;;;;;;;11.85;7.25;;;;;;;5.29;100.00;98568.19;4992214;28;20026;-64
2021/12/08 01:05:21;;;;;;;17.60;7.78;;;;;;;5.26;100.00;98574.44;4992679;28;20466;-64
2021/12/08 01:07:47;;;;;;;12.35;7.00;;;;;;;5.25;100.00;98571.84;4991806;28;20045;-65
2021/12/08 01:10:21;;;;;;;10.68;6.72;;;;;;;5.27;100.00;98576.16;4993404;28;20739;-65
2021/12/08 01:12:47;;;;;;;14.25;6.80;;;;;;;5.25;100.00;98575.31;4983645;28;20384;-65
2021/12/08 01:15:13;;;;;;;15.80;6.72;;;;;;;5.23;100.00;98582.44;4994201;28;20026;-65
2021/12/08 01:17:40;;;;;;;13.98;7.82;;;;;;;5.39;100.00;98590.69;4990966;28;20105;-65
2021/12/08 01:20:09;;;;;;;11.60;7.35;;;;;;;5.34;100.00;98584.69;4978063;28;20386;-65
2021/12/08 01:22:35;;;;;;;13.52;7.95;;;;;;;5.36;100.00;98591.66;4973856;28;20041;-65
2021/12/08 01:25:00;;;;;;;15.40;7.13;;;;;;;5.31;100.00;98593.59;4980324;28;20030;-65
2021/12/08 01:27:26;;;;;;;11.25;7.25;;;;;;;5.23;100.00;98606.19;4993223;28;20435;-64
2021/12/08 01:29:51;;;;;;;10.18;6.68;;;;;;;5.24;100.00;98594.72;4989277;28;20030;-64
2021/12/08 01:32:19;;;;;;;10.98;6.68;;;;;;;5.21;100.00;98575.50;4987608;28;20375;-64
2021/12/08 01:34:44;;;;;;;13.90;7.55;;;;;;;5.07;100.00;98562.78;4992923;28;20030;-64
2021/12/08 01:37:09;;;;;;;13.77;7.38;;;;;;;5.12;100.00;98554.75;4982986;28;20092;-63
2021/12/08 01:39:35;;;;;;;10.80;6.78;;;;;;;5.00;100.00;98550.75;4973978;28;20031;-63
2021/12/08 01:42:00;;;;;;;9.93;6.10;;;;;;;4.96;100.00;98546.47;4976440;28;20114;-63
2021/12/08 01:47:10;;;;;;;10.57;6.00;;;;;;;5.04;100.00;98533.06;4981524;28;20117;-63
2021/12/08 01:49:35;;;;;;;11.43;6.78;;;;;;;5.01;100.00;98531.38;4972508;28;20394;-63
2021/12/08 01:52:01;;;;;;;12.88;6.13;;;;;;;5.02;100.00;98525.22;4985898;28;20085;-63
2021/12/08 01:54:26;;;;;;;11.90;6.50;;;;;;;5.03;100.00;98504.97;4974384;28;20027;-63
2021/12/08 01:56:52;;;;;;;10.35;5.25;;;;;;;5.06;100.00;98503.09;4976008;28;20092;-63
2021/12/08 01:59:17;;;;;;;13.00;6.13;;;;;;;5.05;100.00;98508.44;4978938;28;20061;-63
2021/12/08 02:01:45;;;;;;;8.70;5.78;;;;;;;5.01;100.00;98514.69;4973137;28;20442;-63
2021/12/08 02:04:12;;;;;;;11.20;6.53;;;;;;;5.03;100.00;98510.25;4981100;28;20038;-63
2021/12/08 02:06:42;;;;;;;8.70;4.68;;;;;;;5.04;100.00;98498.81;4986400;28;20101;-63
2021/12/08 02:09:12;;;;;;;10.63;5.88;;;;;;;4.96;100.00;98492.91;4981044;28;20050;-63
2021/12/08 02:11:40;;;;;;;8.45;4.47;;;;;;;4.94;100.00;98479.81;4984320;28;20109;-63
2021/12/08 02:14:06;;;;;;;12.10;5.80;;;;;;;4.97;100.00;98474.44;4989248;28;20046;-63
2021/12/08 02:16:31;;;;;;;11.98;5.75;;;;;;;4.97;100.00;98479.72;4986756;28;20497;-64
2021/12/08 02:18:58;;;;;;;8.63;5.40;;;;;;;5.02;100.00;98484.81;4994734;28;20026;-64
2021/12/08 02:21:31;;;;;;;9.10;5.68;;;;;;;5.03;100.00;98476.88;4989333;28;20110;-64
2021/12/08 02:24:00;;;;;;;13.88;6.25;;;;;;;5.04;100.00;98475.94;4972085;28;20562;-64
2021/12/08 02:26:28;;;;;;;10.13;6.13;;;;;;;5.05;100.00;98474.16;4975154;28;20109;-64
2021/12/08 02:28:55;;;;;;;8.48;6.22;;;;;;;5.03;100.00;98476.00;4990045;28;20029;-64
2021/12/08 02:31:31;;;;;;;10.68;6.38;;;;;;;5.02;100.00;98475.16;4989806;28;20041;-64
2021/12/08 02:47:53;;;;;;;14.05;6.90;;;;;;;5.24;100.00;98455.00;4984135;28;20290;-64
2021/12/08 02:50:25;;;;;;;13.55;6.30;;;;;;;5.28;100.00;98461.91;4991543;28;20490;-64
2021/12/08 02:52:52;;;;;;;10.70;6.50;;;;;;;5.35;100.00;98471.28;4982708;28;20031;-64
2021/12/08 02:55:17;;;;;;;10.48;6.40;;;;;;;5.37;100.00;98460.69;4975264;28;20050;-64
2021/12/08 02:57:43;;;;;;;10.45;5.93;;;;;;;5.42;100.00;98464.00;4973333;28;20461;-64
2021/12/08 03:00:11;;;;;;;11.55;6.25;;;;;;;5.43;100.00;98454.34;4983580;28;20498;-64
2021/12/08 03:02:37;;;;;;;8.90;6.25;;;;;;;5.45;100.00;98452.50;4986814;28;20033;-64
2021/12/08 03:05:04;;;;;;;9.25;5.20;;;;;;;5.43;100.00;98455.22;4981839;28;20026;-64
2021/12/08 03:07:29;;;;;;;10.88;4.90;;;;;;;5.47;100.00;98455.97;4991831;28;20084;-64
2021/12/08 03:10:03;;;;;;;9.05;4.65;;;;;;;5.48;100.00;98465.56;4991650;28;20117;-64
2021/12/08 03:12:30;;;;;;;9.73;5.07;;;;;;;5.52;100.00;98459.28;4990698;28;20022;-64
2021/12/08 03:14:56;;;;;;;7.45;5.38;;;;;;;5.54;100.00;98460.06;4978587;28;20050;-64
2021/12/08 03:17:22;;;;;;;9.55;5.43;;;;;;;5.54;100.00;98467.97;4971699;28;20046;-64
2021/12/08 03:19:49;;;;;;;8.57;5.32;;;;;;;5.55;100.00;98470.59;4975374;28;20037;-64
2021/12/08 03:22:15;;;;;;;10.50;5.45;;;;;;;5.57;100.00;98475.78;4975534;28;20022;-64
2021/12/08 03:24:44;;;;;;;8.18;4.15;;;;;;;5.54;100.00;98467.97;4972865;28;20426;-64
2021/12/08 03:27:15;;;;;;;11.57;4.50;;;;;;;5.57;100.00;98473.16;4982230;28;20029;-64
2021/12/08 03:29:53;;;;;;;7.60;4.60;;;;;;;5.59;100.00;98497.66;4971546;28;20046;-64
2021/12/08 03:32:29;;;;;;;10.05;4.70;;;;;;;5.58;100.00;98491.56;4980061;28;20501;-65
2021/12/08 03:34:55;;;;;;;7.85;5.10;;;;;;;5.54;100.00;98489.06;4991523;28;20038;-65
2021/12/08 03:37:32;;;;;;;8.98;4.57;;;;;;;5.60;100.00;98499.41;4991281;28;20033;-65
2021/12/08 03:40:00;;;;;;;7.28;5.07;;;;;;;5.67;100.00;98506.19;4981381;28;20037;-65
2021/12/08 03:42:27;;;;;;;10.07;4.45;;;;;;;5.69;100.00;98504.34;4991653;28;20518;-65
2021/12/08 03:44:56;;;;;;;9.52;4.20;;;;;;;5.70;100.00;98503.44;4991184;28;20033;-65
2021/12/08 03:47:28;;;;;;;9.93;4.95;;;;;;;5.73;100.00;98501.53;4990047;28;20026;-65
2021/12/08 03:49:55;;;;;;;8.00;4.65;;;;;;;5.73;100.00;98506.81;4983660;28;20049;-65
2021/12/08 03:52:21;;;;;;;10.25;4.55;;;;;;;5.77;100.00;98505.78;4988546;28;20490;-65
2021/12/08 03:54:47;;;;;;;8.40;4.60;;;;;;;5.79;100.00;98516.25;4977931;28;20042;-65
2021/12/08 03:57:12;;;;;;;10.60;4.97;;;;;;;5.82;100.00;98518.78;4970949;28;20031;-65
2021/12/08 03:59:37;;;;;;;9.05;4.90;;;;;;;5.81;100.00;98514.44;4971826;28;20031;-66
2021/12/08 04:02:04;;;;;;;8.85;5.80;;;;;;;5.83;100.00;98510.00;4974125;28;20018;-66
2021/12/08 04:04:30;;;;;;;10.80;5.13;;;;;;;5.88;100.00;98516.81;4990426;28;20033;-66
2021/12/08 04:07:02;;;;;;;10.38;4.88;;;;;;;5.92;100.00;98512.28;4987377;28;20031;-66
2021/12/08 04:09:33;;;;;;;8.70;5.25;;;;;;;5.96;100.00;98513.91;4981557;28;20023;-66
2021/12/08 04:12:02;;;;;;;11.32;5.18;;;;;;;5.94;100.00;98506.03;4971379;28;20037;-66
2021/12/08 04:14:34;;;;;;;10.20;4.68;;;;;;;6.01;100.00;98501.38;4986248;28;20387;-66
2021/12/08 04:17:13;;;;;;;10.55;5.03;;;;;;;6.11;100.00;98502.75;4984778;28;20034;-66
2021/12/08 04:19:39;;;;;;;13.68;5.38;;;;;;;6.14;100.00;98521.09;4985804;28;20469;-66
2021/12/08 04:22:17;;;;;;;16.88;6.38;;;;;;;6.12;100.00;98515.88;4990901;28;20061;-66
2021/12/08 04:24:46;;;;;;;15.65;5.88;;;;;;;6.14;100.00;98518.47;4988170;28;20037;-66
2021/12/08 04:27:19;;;;;;;10.05;5.50;;;;;;;6.07;100.00;98501.13;4996373;28;20080;-66
2021/12/08 04:29:46;;;;;;;9.30;5.22;;;;;;;6.13;100.00;98501.75;5010147;28;20041;-66
2021/12/08 04:32:14;;;;;;;9.18;4.80;;;;;;;6.12;100.00;98512.38;4986609;28;20121;-66
2021/12/08 04:34:42;;;;;;;9.38;4.50;;;;;;;6.10;100.00;98501.88;4979570;28;20032;-66
2021/12/08 04:37:18;;;;;;;9.48;4.75;;;;;;;6.16;100.00;98495.50;4994930;28;20022;-66
2021/12/08 04:42:46;;;;;;;9.63;4.85;;;;;;;6.16;100.00;98483.16;4988461;28;20169;-67
2021/12/08 04:45:20;;;;;;;7.25;4.70;;;;;;;6.17;100.00;98470.81;4974072;28;20031;-66
2021/12/08 04:48:15;;;;;;;7.22;3.95;;;;;;;6.25;100.00;98468.75;4986547;28;20034;-66
2021/12/08 05:09:40;;;;;;;6.50;2.90;;;;;;;6.50;100.00;98464.19;4976375;28;20443;-66
2021/12/08 05:12:10;;;;;;;11.80;2.60;;;;;;;6.50;100.00;98458.91;4978881;28;20019;-66
2021/12/08 05:14:41;;;;;;;11.80;3.38;;;;;;;6.52;100.00;98452.63;4973045;28;20113;-66
2021/12/08 05:17:20;;;;;;;25.10;4.35;;;;;;;6.57;100.00;98465.66;4980920;28;20037;-66
2021/12/08 05:19:49;;;;;;;8.77;2.95;;;;;;;6.54;100.00;98456.06;4974174;28;20030;-66
2021/12/08 05:22:20;;;;;;;14.85;3.33;;;;;;;6.57;100.00;98457.75;4980728;28;20077;-66
2021/12/08 05:24:50;;;;;;;4.90;3.17;;;;;;;6.56;100.00;98463.94;4994274;28;20060;-66
2021/12/08 05:27:26;;;;;;;7.57;3.58;;;;;;;6.56;100.00;98461.28;4992487;28;20022;-66
2021/12/08 05:29:55;;;;;;;7.60;3.60;;;;;;;6.56;100.00;98475.38;4992438;28;20154;-66
2021/12/08 05:32:21;;;;;;;6.07;3.15;;;;;;;6.59;100.00;98482.28;4992647;28;20026;-66
2021/12/08 05:34:47;;;;;;;4.25;2.72;;;;;;;6.59;100.00;98475.22;4984004;28;20109;-66
2021/12/08 05:37:15;;;;;;;10.07;2.90;;;;;;;6.59;100.00;98477.00;4992414;28;20096;-66
2021/12/08 05:39:41;;;;;;;5.75;2.70;;;;;;;6.62;100.00;98487.47;4991071;28;20914;-66
2021/12/08 05:42:14;;;;;;;5.43;2.80;;;;;;;6.64;100.00;98504.09;4985445;28;20030;-66
2021/12/08 05:44:41;;;;;;;6.05;2.80;;;;;;;6.64;100.00;98498.81;4992486;28;20022;-66
2021/12/08 05:47:19;;;;;;;3.83;2.40;;;;;;;6.67;100.00;98499.53;4983269;28;20387;-66
2021/12/08 05:49:45;;;;;;;11.20;3.25;;;;;;;6.79;100.00;98513.19;4973047;28;20030;-66
2021/12/08 05:52:12;;;;;;;6.63;2.60;;;;;;;6.80;100.00;98512.25;4979235;28;20035;-66
2021/12/08 05:54:40;;;;;;;13.05;3.63;;;;;;;6.87;100.00;98506.66;4981629;28;20042;-66
2021/12/08 05:57:10;;;;;;;9.55;3.60;;;;;;;6.92;100.00;98509.94;4972894;28;20383;-66
2021/12/08 05:59:37;;;;;;;7.07;3.40;;;;;;;6.88;100.00;98492.53;4993718;28;20022;-66
2021/12/08 06:02:16;;;;;;;7.90;2.47;;;;;;;6.96;100.00;98495.69;4982131;28;20120;-66
2021/12/08 06:04:42;;;;;;;4.45;2.33;;;;;;;6.98;100.00;98475.34;4992440;28;20386;-66
2021/12/08 06:07:08;;;;;;;5.15;2.33;;;;;;;6.97;100.00;98473.63;4991426;28;20027;-66
2021/12/08 06:09:36;;;;;;;4.10;2.53;;;;;;;6.99;100.00;98469.13;4991625;28;20034;-66
2021/12/08 06:12:04;;;;;;;5.65;3.17;;;;;;;6.97;100.00;98476.25;4986870;28;20034;-66
2021/12/08 06:14:32;;;;;;;5.47;2.97;;;;;;;6.96;100.00;98484.25;4990467;28;20048;-66
2021/12/08 06:17:02;;;;;;;12.90;4.10;;;;;;;6.93;100.00;98490.53;4989567;28;20033;-66
2021/12/08 06:19:29;;;;;;;13.05;4.70;;;;;;;6.96;100.00;98482.47;4992531;28;20482;-66
2021/12/08 06:21:55;;;;;;;5.30;3.45;;;;;;;6.98;100.00;98474.50;4990749;28;20105;-66
2021/12/08 06:24:21;;;;;;;10.55;3.60;;;;;;;6.99;100.00;98478.84;4985259;28;20117;-64
2021/12/08 06:26:47;;;;;;;7.45;4.03;;;;;;;6.97;100.00;98481.53;4990985;28;20105;-65
2021/12/08 06:29:15;;;;;;;7.75;4.60;;;;;;;6.99;100.00;98495.56;4988070;28;20037;-66
2021/12/08 06:31:42;;;;;;;11.77;4.95;;;;;;;7.00;100.00;98501.72;4991617;28;20092;-66
2021/12/08 06:34:08;;;;;;;9.13;4.70;;;;;;;7.01;100.00;98525.44;4991373;28;20030;-66
2021/12/08 06:36:42;;;;;;;8.63;3.95;;;;;;;6.97;100.00;98528.28;4990801;28;20034;-66
2021/12/08 06:39:19;;;;;;;6.82;3.88;;;;;;;6.99;100.00;98527.28;4976110;28;20449;-66
2021/12/08 06:41:51;;;;;;;8.45;4.43;;;;;;;6.98;100.00;98530.88;4972140;28;20022;-66
2021/12/08 06:44:29;;;;;;;11.68;5.22;;;;;;;6.97;100.00;98523.00;4973103;28;20037;-66
2021/12/08 06:46:56;;;;;;;13.10;4.65;;;;;;;6.95;100.00;98520.41;4988685;28;20077;-66
2021/12/08 06:49:22;;;;;;;25.42;6.93;;;;;;;6.93;100.00;98519.63;4987885;28;20041;-66
2021/12/08 06:52:02;;;;;;;17.13;9.90;;;;;;;6.93;100.00;98516.09;4987995;28;20030;-66
2021/12/08 06:54:35;;;;;;;13.95;7.15;;;;;;;6.91;100.00;98518.81;4989100;28;20069;-67
2021/12/08 06:57:09;;;;;;;12.15;5.68;;;;;;;6.90;100.00;98524.16;4990842;28;20525;-66
2021/12/08 06:59:50;;;;;;;28.48;7.45;;;;;;;6.88;100.00;98524.25;4988665;28;20037;-66
2021/12/08 07:02:34;;;;;;;9.70;4.85;;;;;;;6.91;100.00;98518.81;4983256;28;20033;-66
2021/12/08 07:05:25;;;;;;;7.68;4.30;;;;;;;6.96;100.00;98506.28;4976005;28;20378;-66
2021/12/08 07:07:51;;;;;;;6.75;3.55;;;;;;;7.00;100.00;98497.28;4976335;28;20390;-66
2021/12/08 07:10:30;;;;;;;6.30;3.95;;;;;;;7.03;100.00;98491.00;4974189;28;20110;-65
2021/12/08 07:13:09;;;;;;;7.40;4.40;;;;;;;7.19;100.00;98495.56;4974444;28;20081;-65
2021/12/08 07:15:40;;;;;;;11.55;5.40;;;;;;;7.19;100.00;98507.94;4977936;28;20082;-65
2021/12/08 07:18:11;;;;;;;11.40;5.43;;;;;;;7.16;100.00;98501.00;4970046;28;20033;-65
2021/12/08 07:20:46;;;;;;;12.43;6.63;;;;;;;7.14;100.00;98484.34;4990484;28;20043;-65
2021/12/08 07:23:21;;;;;;;9.77;5.55;;;;;;;7.13;100.00;98479.13;4979859;28;20518;-65
2021/12/08 07:25:50;;;;;;;10.00;5.28;;;;;;;7.14;100.00;98489.63;4989374;28;20029;-66
2021/12/08 07:28:18;;;;;;;8.90;5.28;;;;;;;7.11;100.00;98497.69;4985489;28;20414;-66
2021/12/08 07:30:53;;;;;;;10.95;4.75;;;;;;;7.09;100.00;98498.66;4990096;28;20503;-66
2021/12/08 07:33:20;;;;;;;11.02;5.53;;;;;;;7.09;100.00;98502.19;4988903;28;20030;-66
2021/12/08 07:35:51;;;;;;;7.60;5.10;;;;;;;7.11;100.00;98500.34;4990334;28;20036;-66
2021/12/08 07:38:19;;;;;;;7.78;4.57;;;;;;;7.11;100.00;98505.63;4982449;28;20117;-66
2021/12/08 07:40:54;;;;;;;5.88;4.20;;;;;;;7.14;100.00;98509.91;4989954;28;20061;-65
2021/12/08 07:43:24;;;;;;;6.80;4.72;;;;;;;7.15;100.00;98501.06;4989467;28;20478;-65
2021/12/08 07:46:03;;;;;;;10.57;5.03;;;;;;;7.18;100.00;98506.22;4985678;28;20033;-65
2021/12/08 07:48:34;;;;;;;9.00;5.43;;;;;;;7.21;100.00;98511.38;4969025;28;20033;-65
2021/12/08 07:51:20;;;;;;;9.05;5.60;;;;;;;7.24;100.00;98509.47;4975092;28;20019;-65
2021/12/08 07:53:46;;;;;;;7.85;4.75;;;;;;;7.27;100.00;98522.53;4985438;28;20045;-66
2021/12/08 07:56:17;;;;;;;10.20;4.88;;;;;;;7.34;100.00;98525.78;4982422;28;20034;-66
2021/12/08 07:58:46;;;;;;;9.88;4.68;;;;;;;7.36;100.00;98511.59;4987341;28;20041;-65
2021/12/08 08:01:19;;;;;;;14.88;4.90;;;;;;;7.36;100.00;98527.44;4991137;28;20026;-65
2021/12/08 08:03:46;;;;;;;8.75;4.80;;;;;;;7.42;100.00;98516.59;4983105;28;20018;-65
2021/12/08 08:06:17;;;;;;;9.63;5.47;;;;;;;7.42;100.00;98526.31;4992227;28;20050;-65
2021/12/08 08:08:42;;;;;;;11.32;5.22;;;;;;;7.49;100.00;98523.34;4997742;28;20022;-65
2021/12/08 08:11:16;;;;;;;9.48;5.22;;;;;;;7.40;100.00;98512.28;4985021;28;20058;-65
2021/12/08 08:13:43;;;;;;;8.60;4.95;;;;;;;7.38;100.00;98506.22;4995024;28;20046;-65
2021/12/08 08:16:13;;;;;;;10.40;6.05;;;;;;;7.50;100.00;98534.75;4995393;28;20018;-65
2021/12/08 08:18:48;;;;;;;14.15;7.35;;;;;;;7.53;100.00;98535.50;4993662;28;20027;-65
2021/12/08 08:21:17;;;;;;;78.25;37.67;;;;;;;7.52;100.00;98532.91;4988886;28;20430;-65
2021/12/08 08:23:44;;;;;;;68.40;35.40;;;;;;;7.53;100.00;98524.91;4975275;28;20058;-65
2021/12/08 08:26:12;;;;;;;35.38;22.05;;;;;;;7.54;100.00;98525.78;4982725;28;20479;-65
2021/12/08 08:28:40;;;;;;;23.33;12.68;;;;;;;7.54;100.00;98526.66;4996403;28;20364;-65
2021/12/08 08:31:17;;;;;;;25.38;11.68;;;;;;;7.56;100.00;98524.75;4992331;28;20486;-65
2021/12/08 08:33:44;;;;;;;21.77;9.57;;;;;;;7.57;100.00;98523.84;4992832;28;20041;-65
2021/12/08 08:36:15;;;;;;;14.57;8.95;;;;;;;7.57;100.00;98536.22;4995999;28;20037;-65
2021/12/08 08:38:52;;;;;;;21.85;9.55;;;;;;;7.59;100.00;98544.94;4994259;28;20034;-65
2021/12/08 08:41:25;;;;;;;17.50;7.57;;;;;;;7.57;100.00;98542.38;4991826;28;20046;-65
2021/12/08 08:43:53;;;;;;;14.52;6.63;;;;;;;7.55;100.00;98538.06;4995736;28;20026;-65
2021/12/08 08:46:24;;;;;;;9.93;5.43;;;;;;;7.63;100.00;98546.50;4987056;28;20058;-65
2021/12/08 08:48:54;;;;;;;15.15;5.70;;;;;;;7.64;100.00;98562.31;4978559;28;20394;-65
2021/12/08 08:51:29;;;;;;;11.73;5.65;;;;;;;7.65;100.00;98558.78;4975316;28;20072;-65
2021/12/08 08:53:59;;;;;;;10.25;5.97;;;;;;;7.68;100.00;98566.56;4986640;28;20058;-66
2021/12/08 08:56:29;;;;;;;8.93;5.00;;;;;;;7.69;100.00;98578.84;4974742;28;20375;-66
2021/12/08 08:58:58;;;;;;;9.82;5.53;;;;;;;7.74;100.00;98570.75;4975030;28;20035;-66
2021/12/08 09:01:28;;;;;;;8.80;4.95;;;;;;;7.76;100.00;98580.31;4977995;28;20387;-66
2021/12/08 09:04:05;;;;;;;7.88;4.35;;;;;;;7.75;100.00;98591.84;4995060;28;20332;-66
2021/12/08 09:06:38;;;;;;;8.60;4.07;;;;;;;7.74;100.00;98602.50;4991685;28;20050;-66
2021/12/08 09:09:09;;;;;;;6.78;4.07;;;;;;;7.78;100.00;98593.47;4986167;28;20398;-66
2021/12/08 09:11:39;;;;;;;9.02;3.67;;;;;;;7.80;100.00;98586.34;4993595;28;20027;-66
2021/12/08 09:14:18;;;;;;;10.20;4.68;;;;;;;7.82;100.00;98590.63;4993992;28;20050;-66
2021/12/08 09:16:54;;;;;;;7.35;4.50;;;;;;;7.83;100.00;98597.66;4985263;28;20368;-66
2021/12/08 09:19:36;;;;;;;10.45;4.90;;;;;;;7.84;100.00;98588.78;4994033;28;20018;-66
2021/12/08 09:22:04;;;;;;;7.25;4.53;;;;;;;7.91;100.00;98584.94;4988134;28;20038;-66
2021/12/08 09:24:36;;;;;;;7.70;4.65;;;;;;;7.98;100.00;98582.88;4978240;28;20019;-66
2021/12/08 09:27:07;;;;;;;7.60;4.57;;;;;;;7.99;100.00;98580.16;4974155;28;20034;-66
2021/12/08 09:29:43;;;;;;;8.80;4.63;;;;;;;8.00;100.00;98578.38;4988215;28;20026;-66
2021/12/08 09:32:36;;;;;;;9.15;5.15;;;;;;;8.04;100.00;98583.44;4973385;28;20079;-66
2021/12/08 09:35:25;;;;;;;8.45;5.07;;;;;;;8.12;100.00;98572.53;4986493;28;20057;-66
2021/12/08 09:38:00;;;;;;;10.07;5.50;;;;;;;8.13;100.00;98579.53;4993706;28;20034;-66
2021/12/08 09:40:29;;;;;;;8.85;5.60;;;;;;;8.11;100.00;98570.78;4993532;28;20030;-66
2021/12/08 09:42:59;;;;;;;9.57;4.55;;;;;;;8.11;100.00;98573.44;4991077;28;20102;-66
2021/12/08 09:45:31;;;;;;;8.80;4.95;;;;;;;8.10;100.00;98573.50;4986363;28;20026;-66
2021/12/08 09:48:00;;;;;;;8.00;3.97;;;;;;;8.05;100.00;98565.78;4992784;28;20042;-66
2021/12/08 09:50:25;;;;;;;7.63;4.25;;;;;;;8.09;100.00;98572.66;4981699;28;20065;-66
2021/12/08 09:52:51;;;;;;;7.72;4.13;;;;;;;8.18;100.00;98577.53;4973771;28;20058;-66
2021/12/08 09:55:18;;;;;;;8.13;4.97;;;;;;;8.20;100.00;98573.03;4974145;28;20038;-66
2021/12/08 09:57:45;;;;;;;7.20;4.05;;;;;;;8.19;100.00;98563.34;4975304;28;20051;-66
2021/12/08 10:00:19;;;;;;;10.10;5.38;;;;;;;8.20;100.00;98572.16;4985034;28;20520;-66
2021/12/08 10:02:44;;;;;;;8.70;5.00;;;;;;;8.25;100.00;98571.06;4992980;28;20394;-66
2021/12/08 10:05:16;;;;;;;8.10;4.75;;;;;;;8.25;100.00;98578.16;4996450;28;20027;-66
2021/12/08 10:07:43;;;;;;;7.75;4.07;;;;;;;8.23;100.00;98569.38;4986622;28;20025;-66
2021/12/08 10:10:12;;;;;;;4.72;3.30;;;;;;;8.21;100.00;98571.22;4980971;28;20031;-66
2021/12/08 10:12:41;;;;;;;8.93;3.95;;;;;;;8.24;100.00;98566.69;4993002;28;20041;-66
2021/12/08 10:15:13;;;;;;;9.82;5.10;;;;;;;8.29;100.00;98558.50;4996868;28;20050;-66
2021/12/08 10:17:38;;;;;;;8.48;4.68;;;;;;;8.33;100.00;98552.16;4987836;28;20034;-66
2021/12/08 10:20:13;;;;;;;8.13;4.38;;;;;;;8.35;100.00;98547.66;4981188;28;20101;-66
2021/12/08 10:22:42;;;;;;;7.32;4.03;;;;;;;8.41;100.00;98542.06;4981478;28;20027;-66
2021/12/08 10:25:12;;;;;;;9.70;4.70;;;;;;;8.45;100.00;98531.22;4991832;28;20490;-66
2021/12/08 10:28:05;;;;;;;9.77;4.63;;;;;;;8.45;100.00;98530.41;4992524;28;20033;-66
2021/12/08 10:30:31;;;;;;;8.73;5.03;;;;;;;8.43;100.00;98529.59;4989938;28;20021;-66
2021/12/08 10:32:57;;;;;;;10.85;4.97;;;;;;;8.40;100.00;98519.16;4992230;28;20491;-66
2021/12/08 10:35:49;;;;;;;10.05;5.85;;;;;;;8.48;100.00;98527.59;4988737;28;20057;-66
2021/12/08 10:38:16;;;;;;;17.48;7.13;;;;;;;8.53;100.00;98525.59;4997787;28;20113;-66
2021/12/08 10:41:05;;;;;;;13.80;7.82;;;;;;;8.50;100.00;98523.09;4993163;28;20032;-66
2021/12/08 10:43:30;;;;;;;9.90;6.13;;;;;;;8.57;100.00;98532.44;4989343;28;20359;-66
2021/12/08 10:46:31;;;;;;;12.45;7.20;;;;;;;8.60;100.00;98532.31;4979079;28;20035;-66
2021/12/08 10:49:13;;;;;;;9.90;5.63;;;;;;;8.62;100.00;98531.28;4974656;28;20109;-67
2021/12/08 10:54:33;;;;;;;8.40;5.50;;;;;;;8.63;100.00;98533.00;4991200;28;20040;-66
2021/12/08 10:57:17;;;;;;;4.95;2.60;;;;;;;8.62;100.00;98525.13;4995408;28;20101;-66
2021/12/08 10:59:56;;;;;;;4.65;2.30;;;;;;;8.64;100.00;98524.13;4988478;28;20034;-66
2021/12/08 11:02:44;;;;;;;3.80;2.33;;;;;;;8.61;100.00;98528.72;4991765;28;20031;-66
2021/12/08 11:05:24;;;;;;;5.13;2.38;;;;;;;8.60;100.00;98533.16;4992612;28;20022;-66
2021/12/08 11:08:10;;;;;;;4.72;2.05;;;;;;;8.61;100.00;98526.94;4982987;28;20035;-66
2021/12/08 11:10:40;;;;;;;4.55;2.15;;;;;;;8.60;100.00;98527.84;4988588;28;20487;-66
2021/12/08 11:13:07;;;;;;;2.83;1.48;;;;;;;8.60;100.00;98527.00;4985565;28;20043;-66
2021/12/08 11:15:33;;;;;;;2.55;1.67;;;;;;;8.59;100.00;98525.28;4988352;28;20165;-66
2021/12/08 11:18:13;;;;;;;3.28;1.75;;;;;;;8.60;100.00;98530.50;4991213;28;20029;-66
2021/12/08 11:20:45;;;;;;;4.95;2.25;;;;;;;8.57;100.00;98530.66;4982719;28;20034;-66
2021/12/08 11:23:15;;;;;;;3.08;1.95;;;;;;;8.59;100.00;98527.94;4991292;28;20030;-66
2021/12/08 11:25:45;;;;;;;3.05;1.77;;;;;;;8.57;100.00;98532.44;4981786;28;20030;-66
2021/12/08 11:28:21;;;;;;;5.05;2.17;;;;;;;8.59;100.00;98533.22;4975507;28;20023;-66
2021/12/08 11:30:47;;;;;;;5.15;2.20;;;;;;;8.61;100.00;98529.59;4974530;28;20023;-66
2021/12/08 11:33:23;;;;;;;3.47;2.20;;;;;;;8.65;100.00;98525.00;4980866;28;20382;-66
2021/12/08 11:36:06;;;;;;;5.95;2.75;;;;;;;8.60;100.00;98529.66;4971870;28;20018;-66
2021/12/08 11:38:32;;;;;;;4.80;2.57;;;;;;;8.61;100.00;98518.13;4988211;28;20037;-66
2021/12/08 11:40:57;;;;;;;5.20;2.30;;;;;;;8.60;100.00;98514.59;4991031;28;20562;-66
2021/12/08 11:43:30;;;;;;;7.03;2.80;;;;;;;8.66;100.00;98516.09;4983659;28;20134;-66
2021/12/08 11:46:13;;;;;;;4.45;2.42;;;;;;;8.68;100.00;98516.91;4976035;28;20129;-66
2021/12/08 11:48:54;;;;;;;4.50;2.30;;;;;;;8.67;100.00;98512.50;4971585;28;20038;-66
2021/12/08 11:51:19;;;;;;;4.13;2.40;;;;;;;8.74;100.00;98513.94;4978131;28;20035;-66
2021/12/08 11:53:45;;;;;;;3.88;2.10;;;;;;;8.74;100.00;98519.22;4970641;28;20027;-66
2021/12/08 11:56:40;;;;;;;4.93;2.45;;;;;;;8.68;100.00;98508.94;4989611;28;20069;-66
2021/12/08 11:59:09;;;;;;;4.60;2.35;;;;;;;8.71;100.00;98519.38;4991187;28;20498;-66
2021/12/08 12:01:37;;;;;;;4.85;2.60;;;;;;;8.70;100.00;98515.88;4991628;28;20030;-66
2021/12/08 12:04:04;;;;;;;5.50;2.53;;;;;;;8.71;100.00;98524.69;4988603;28;20034;-66
2021/12/08 12:06:30;;;;;;;6.80;2.75;;;;;;;8.69;100.00;98521.25;4984875;28;20046;-66
2021/12/08 12:08:57;;;;;;;4.30;2.50;;;;;;;8.68;100.00;98508.94;4989931;28;20026;-66
2021/12/08 12:11:25;;;;;;;6.55;2.90;;;;;;;8.71;100.00;98508.78;4981162;28;20422;-66
2021/12/08 12:13:52;;;;;;;4.28;2.58;;;;;;;8.68;100.00;98503.63;4993544;28;20043;-66
2021/12/08 12:16:17;;;;;;;3.55;2.38;;;;;;;8.64;100.00;98500.28;4991406;28;20030;-66
2021/12/08 12:18:43;;;;;;;6.10;3.10;;;;;;;8.67;100.00;98499.25;4989087;28;20035;-66
2021/12/08 12:21:25;;;;;;;4.20;2.33;;;;;;;8.73;100.00;98497.16;4984024;28;20026;-67
2021/12/08 12:24:14;;;;;;;5.75;2.95;;;;;;;8.73;100.00;98502.47;4985206;28;20022;-67
2021/12/08 12:27:04;;;;;;;5.13;2.80;;;;;;;8.79;100.00;98504.81;4987667;28;20103;-66
2021/12/08 12:29:44;;;;;;;5.25;2.65;;;;;;;8.80;100.00;98514.50;4989763;28;20038;-66